sensor_id;sensor_type;location;lat;lon;timestamp;P1;durP1;ratioP1;P2;durP2;ratioP2
18316;SDS011;9284;52.298;21.164;2024-02-28T00:00:06;29.02;;;16.30;;
18316;SDS011;9284;52.298;21.164;2024-02-28T00:02:37;27.55;;;15.23;;
18316;SDS011;9284;52.298;21.164;2024-02-28T00:05:06;30.80;;;17.45;;
18316;SDS011;9284;52.298;21.164;2024-02-28T00:07:35;28.77;;;16.58;;
18316;SDS011;9284;52.298;21.164;2024-02-28T00:10:05;33.85;;;16.95;;
18316;SDS011;9284;52.298;21.164;2024-02-28T00:12:34;29.52;;;16.92;;
18316;SDS011;9284;52.298;21.164;2024-02-28T00:15:02;36.13;;;16.88;;
18316;SDS011;9284;52.298;21.164;2024-02-28T00:17:32;31.80;;;17.55;;
18316;SDS011;9284;52.298;21.164;2024-02-28T00:20:01;35.50;;;18.23;;
18316;SDS011;9284;52.298;21.164;2024-02-28T00:22:30;34.78;;;18.20;;
18316;SDS011;9284;52.298;21.164;2024-02-28T00:24:58;34.30;;;16.45;;
18316;SDS011;9284;52.298;21.164;2024-02-28T00:27:29;36.33;;;17.27;;
18316;SDS011;9284;52.298;21.164;2024-02-28T00:29:57;32.05;;;17.77;;
18316;SDS011;9284;52.298;21.164;2024-02-28T00:32:25;31.92;;;17.30;;
18316;SDS011;9284;52.298;21.164;2024-02-28T00:34:54;31.70;;;16.67;;
18316;SDS011;9284;52.298;21.164;2024-02-28T00:37:22;36.50;;;17.08;;
18316;SDS011;9284;52.298;21.164;2024-02-28T00:39:51;39.78;;;17.42;;
18316;SDS011;9284;52.298;21.164;2024-02-28T00:42:20;31.25;;;17.25;;
18316;SDS011;9284;52.298;21.164;2024-02-28T00:44:50;30.52;;;17.73;;
18316;SDS011;9284;52.298;21.164;2024-02-28T00:47:18;34.58;;;18.00;;
18316;SDS011;9284;52.298;21.164;2024-02-28T00:49:47;32.53;;;17.33;;
18316;SDS011;9284;52.298;21.164;2024-02-28T00:52:15;35.92;;;18.38;;
18316;SDS011;9284;52.298;21.164;2024-02-28T00:54:43;33.53;;;17.83;;
18316;SDS011;9284;52.298;21.164;2024-02-28T00:57:12;34.95;;;18.33;;
18316;SDS011;9284;52.298;21.164;2024-02-28T00:59:40;37.20;;;19.05;;
18316;SDS011;9284;52.298;21.164;2024-02-28T01:02:13;36.03;;;18.17;;
18316;SDS011;9284;52.298;21.164;2024-02-28T01:04:42;31.70;;;18.27;;
18316;SDS011;9284;52.298;21.164;2024-02-28T01:07:11;36.15;;;18.38;;
18316;SDS011;9284;52.298;21.164;2024-02-28T01:09:39;33.47;;;18.52;;
18316;SDS011;9284;52.298;21.164;2024-02-28T01:12:08;33.15;;;18.65;;
18316;SDS011;9284;52.298;21.164;2024-02-28T01:14:36;31.63;;;18.65;;
18316;SDS011;9284;52.298;21.164;2024-02-28T01:17:04;33.10;;;18.40;;
18316;SDS011;9284;52.298;21.164;2024-02-28T01:19:34;42.88;;;19.73;;
18316;SDS011;9284;52.298;21.164;2024-02-28T01:22:02;33.03;;;18.38;;
18316;SDS011;9284;52.298;21.164;2024-02-28T01:24:31;34.80;;;17.98;;
18316;SDS011;9284;52.298;21.164;2024-02-28T01:27:00;30.33;;;16.67;;
18316;SDS011;9284;52.298;21.164;2024-02-28T01:29:29;30.85;;;16.00;;
18316;SDS011;9284;52.298;21.164;2024-02-28T01:31:57;33.60;;;17.48;;
18316;SDS011;9284;52.298;21.164;2024-02-28T01:34:26;45.17;;;21.60;;
18316;SDS011;9284;52.298;21.164;2024-02-28T01:36:55;38.33;;;21.70;;
18316;SDS011;9284;52.298;21.164;2024-02-28T01:39:24;39.45;;;21.02;;
18316;SDS011;9284;52.298;21.164;2024-02-28T01:41:52;45.00;;;20.40;;
18316;SDS011;9284;52.298;21.164;2024-02-28T01:44:21;36.50;;;20.92;;
18316;SDS011;9284;52.298;21.164;2024-02-28T01:46:50;38.72;;;22.05;;
18316;SDS011;9284;52.298;21.164;2024-02-28T01:49:21;40.35;;;20.65;;
18316;SDS011;9284;52.298;21.164;2024-02-28T01:51:51;40.55;;;21.20;;
18316;SDS011;9284;52.298;21.164;2024-02-28T01:54:24;43.20;;;22.23;;
18316;SDS011;9284;52.298;21.164;2024-02-28T01:56:59;45.00;;;24.27;;
18316;SDS011;9284;52.298;21.164;2024-02-28T01:59:28;44.10;;;24.27;;
18316;SDS011;9284;52.298;21.164;2024-02-28T02:01:59;44.47;;;23.85;;
18316;SDS011;9284;52.298;21.164;2024-02-28T02:04:27;50.35;;;24.70;;
18316;SDS011;9284;52.298;21.164;2024-02-28T02:06:56;47.92;;;25.73;;
18316;SDS011;9284;52.298;21.164;2024-02-28T02:09:27;52.08;;;25.40;;
18316;SDS011;9284;52.298;21.164;2024-02-28T02:11:56;49.03;;;25.73;;
18316;SDS011;9284;52.298;21.164;2024-02-28T02:14:24;51.15;;;26.60;;
18316;SDS011;9284;52.298;21.164;2024-02-28T02:16:53;51.53;;;27.77;;
18316;SDS011;9284;52.298;21.164;2024-02-28T02:19:21;49.75;;;26.75;;
18316;SDS011;9284;52.298;21.164;2024-02-28T02:21:51;54.67;;;27.13;;
18316;SDS011;9284;52.298;21.164;2024-02-28T02:24:23;49.33;;;27.52;;
18316;SDS011;9284;52.298;21.164;2024-02-28T02:26:54;54.72;;;27.77;;
18316;SDS011;9284;52.298;21.164;2024-02-28T02:29:23;52.20;;;27.27;;
18316;SDS011;9284;52.298;21.164;2024-02-28T02:31:51;57.15;;;28.25;;
18316;SDS011;9284;52.298;21.164;2024-02-28T02:34:20;59.05;;;29.65;;
18316;SDS011;9284;52.298;21.164;2024-02-28T02:36:48;56.00;;;28.17;;
18316;SDS011;9284;52.298;21.164;2024-02-28T02:39:16;51.05;;;28.15;;
18316;SDS011;9284;52.298;21.164;2024-02-28T02:41:46;51.75;;;29.38;;
18316;SDS011;9284;52.298;21.164;2024-02-28T02:44:15;58.10;;;29.38;;
18316;SDS011;9284;52.298;21.164;2024-02-28T02:46:43;59.63;;;30.08;;
18316;SDS011;9284;52.298;21.164;2024-02-28T02:49:11;65.28;;;30.77;;
18316;SDS011;9284;52.298;21.164;2024-02-28T02:51:39;62.08;;;30.95;;
18316;SDS011;9284;52.298;21.164;2024-02-28T02:54:10;54.63;;;29.65;;
18316;SDS011;9284;52.298;21.164;2024-02-28T02:56:40;58.40;;;30.58;;
18316;SDS011;9284;52.298;21.164;2024-02-28T02:59:11;60.22;;;31.85;;
18316;SDS011;9284;52.298;21.164;2024-02-28T03:01:39;62.97;;;31.80;;
18316;SDS011;9284;52.298;21.164;2024-02-28T03:04:08;61.08;;;32.40;;
18316;SDS011;9284;52.298;21.164;2024-02-28T03:06:36;68.18;;;31.35;;
18316;SDS011;9284;52.298;21.164;2024-02-28T03:09:04;60.20;;;30.73;;
18316;SDS011;9284;52.298;21.164;2024-02-28T03:11:34;57.78;;;30.90;;
18316;SDS011;9284;52.298;21.164;2024-02-28T03:14:02;65.82;;;34.00;;
18316;SDS011;9284;52.298;21.164;2024-02-28T03:16:32;63.05;;;33.65;;
18316;SDS011;9284;52.298;21.164;2024-02-28T03:19:04;67.32;;;32.65;;
18316;SDS011;9284;52.298;21.164;2024-02-28T03:21:32;65.65;;;33.85;;
18316;SDS011;9284;52.298;21.164;2024-02-28T03:24:01;64.25;;;32.85;;
18316;SDS011;9284;52.298;21.164;2024-02-28T03:26:31;66.82;;;32.95;;
18316;SDS011;9284;52.298;21.164;2024-02-28T03:29:00;63.97;;;31.38;;
18316;SDS011;9284;52.298;21.164;2024-02-28T03:31:28;70.22;;;33.35;;
18316;SDS011;9284;52.298;21.164;2024-02-28T03:33:58;66.10;;;33.40;;
18316;SDS011;9284;52.298;21.164;2024-02-28T03:36:27;67.90;;;33.45;;
18316;SDS011;9284;52.298;21.164;2024-02-28T03:38:55;63.85;;;31.90;;
18316;SDS011;9284;52.298;21.164;2024-02-28T03:41:24;67.82;;;32.13;;
18316;SDS011;9284;52.298;21.164;2024-02-28T03:43:52;66.10;;;33.05;;
18316;SDS011;9284;52.298;21.164;2024-02-28T03:46:20;69.43;;;33.20;;
18316;SDS011;9284;52.298;21.164;2024-02-28T03:48:49;63.85;;;32.03;;
18316;SDS011;9284;52.298;21.164;2024-02-28T03:51:18;64.00;;;32.13;;
18316;SDS011;9284;52.298;21.164;2024-02-28T03:53:46;62.03;;;32.25;;
18316;SDS011;9284;52.298;21.164;2024-02-28T03:56:21;63.10;;;30.55;;
18316;SDS011;9284;52.298;21.164;2024-02-28T03:58:52;60.85;;;31.20;;
18316;SDS011;9284;52.298;21.164;2024-02-28T04:01:23;64.00;;;31.52;;
18316;SDS011;9284;52.298;21.164;2024-02-28T04:03:52;64.47;;;31.95;;
18316;SDS011;9284;52.298;21.164;2024-02-28T04:06:24;58.05;;;29.27;;
18316;SDS011;9284;52.298;21.164;2024-02-28T04:08:53;63.90;;;31.60;;
18316;SDS011;9284;52.298;21.164;2024-02-28T04:11:21;63.65;;;31.27;;
18316;SDS011;9284;52.298;21.164;2024-02-28T04:13:50;56.10;;;29.63;;
18316;SDS011;9284;52.298;21.164;2024-02-28T04:16:18;66.18;;;31.65;;
18316;SDS011;9284;52.298;21.164;2024-02-28T04:18:47;61.55;;;30.20;;
18316;SDS011;9284;52.298;21.164;2024-02-28T04:21:15;65.60;;;31.77;;
18316;SDS011;9284;52.298;21.164;2024-02-28T04:23:45;63.90;;;30.92;;
18316;SDS011;9284;52.298;21.164;2024-02-28T04:26:13;64.25;;;30.48;;
18316;SDS011;9284;52.298;21.164;2024-02-28T04:28:42;63.35;;;31.05;;
18316;SDS011;9284;52.298;21.164;2024-02-28T04:31:12;63.58;;;31.02;;
18316;SDS011;9284;52.298;21.164;2024-02-28T04:33:40;61.42;;;31.17;;
18316;SDS011;9284;52.298;21.164;2024-02-28T04:36:08;62.95;;;31.58;;
18316;SDS011;9284;52.298;21.164;2024-02-28T04:38:36;60.38;;;29.88;;
18316;SDS011;9284;52.298;21.164;2024-02-28T04:41:06;57.78;;;29.45;;
18316;SDS011;9284;52.298;21.164;2024-02-28T04:43:34;64.60;;;31.92;;
18316;SDS011;9284;52.298;21.164;2024-02-28T04:46:03;67.80;;;31.23;;
18316;SDS011;9284;52.298;21.164;2024-02-28T04:48:31;64.88;;;29.35;;
18316;SDS011;9284;52.298;21.164;2024-02-28T04:51:01;54.35;;;28.77;;
18316;SDS011;9284;52.298;21.164;2024-02-28T04:53:30;58.03;;;28.92;;
18316;SDS011;9284;52.298;21.164;2024-02-28T04:55:58;62.45;;;31.35;;
18316;SDS011;9284;52.298;21.164;2024-02-28T04:58:29;63.88;;;30.52;;
18316;SDS011;9284;52.298;21.164;2024-02-28T05:00:57;61.20;;;30.35;;
18316;SDS011;9284;52.298;21.164;2024-02-28T05:03:25;60.08;;;29.83;;
18316;SDS011;9284;52.298;21.164;2024-02-28T05:05:54;62.88;;;31.27;;
18316;SDS011;9284;52.298;21.164;2024-02-28T05:08:22;66.30;;;31.33;;
18316;SDS011;9284;52.298;21.164;2024-02-28T05:10:53;68.78;;;33.15;;
18316;SDS011;9284;52.298;21.164;2024-02-28T05:13:21;63.40;;;31.95;;
18316;SDS011;9284;52.298;21.164;2024-02-28T05:15:52;64.15;;;32.00;;
18316;SDS011;9284;52.298;21.164;2024-02-28T05:18:23;69.60;;;34.67;;
18316;SDS011;9284;52.298;21.164;2024-02-28T05:20:52;69.50;;;32.75;;
18316;SDS011;9284;52.298;21.164;2024-02-28T05:23:20;70.53;;;33.85;;
18316;SDS011;9284;52.298;21.164;2024-02-28T05:25:50;68.95;;;32.28;;
18316;SDS011;9284;52.298;21.164;2024-02-28T05:28:18;67.88;;;33.22;;
18316;SDS011;9284;52.298;21.164;2024-02-28T05:30:46;63.80;;;31.75;;
18316;SDS011;9284;52.298;21.164;2024-02-28T05:33:18;68.90;;;32.22;;
18316;SDS011;9284;52.298;21.164;2024-02-28T05:35:46;65.65;;;30.90;;
18316;SDS011;9284;52.298;21.164;2024-02-28T05:38:14;70.50;;;33.67;;
18316;SDS011;9284;52.298;21.164;2024-02-28T05:40:43;70.72;;;31.80;;
18316;SDS011;9284;52.298;21.164;2024-02-28T05:43:11;74.75;;;31.98;;
18316;SDS011;9284;52.298;21.164;2024-02-28T05:45:40;71.93;;;34.55;;
18316;SDS011;9284;52.298;21.164;2024-02-28T05:48:08;70.25;;;32.92;;
18316;SDS011;9284;52.298;21.164;2024-02-28T05:50:38;80.78;;;36.25;;
18316;SDS011;9284;52.298;21.164;2024-02-28T05:53:07;73.78;;;33.97;;
18316;SDS011;9284;52.298;21.164;2024-02-28T05:55:35;67.93;;;34.53;;
18316;SDS011;9284;52.298;21.164;2024-02-28T05:58:03;79.22;;;35.55;;
18316;SDS011;9284;52.298;21.164;2024-02-28T06:00:32;74.07;;;34.53;;
18316;SDS011;9284;52.298;21.164;2024-02-28T06:03:02;71.10;;;33.03;;
18316;SDS011;9284;52.298;21.164;2024-02-28T06:05:32;70.95;;;33.92;;
18316;SDS011;9284;52.298;21.164;2024-02-28T06:08:01;69.68;;;34.15;;
18316;SDS011;9284;52.298;21.164;2024-02-28T06:10:30;71.97;;;34.42;;
18316;SDS011;9284;52.298;21.164;2024-02-28T06:12:58;71.65;;;32.38;;
18316;SDS011;9284;52.298;21.164;2024-02-28T06:15:27;76.43;;;35.80;;
18316;SDS011;9284;52.298;21.164;2024-02-28T06:17:56;63.35;;;31.92;;
18316;SDS011;9284;52.298;21.164;2024-02-28T06:20:25;70.40;;;32.63;;
18316;SDS011;9284;52.298;21.164;2024-02-28T06:22:54;70.75;;;34.65;;
18316;SDS011;9284;52.298;21.164;2024-02-28T06:25:24;68.63;;;32.30;;
18316;SDS011;9284;52.298;21.164;2024-02-28T06:27:54;84.03;;;36.65;;
18316;SDS011;9284;52.298;21.164;2024-02-28T06:30:23;84.07;;;37.72;;
18316;SDS011;9284;52.298;21.164;2024-02-28T06:32:51;87.13;;;39.58;;
18316;SDS011;9284;52.298;21.164;2024-02-28T06:35:19;79.65;;;36.45;;
18316;SDS011;9284;52.298;21.164;2024-02-28T06:37:48;76.22;;;37.40;;
18316;SDS011;9284;52.298;21.164;2024-02-28T06:40:16;85.35;;;38.92;;
18316;SDS011;9284;52.298;21.164;2024-02-28T06:42:46;83.22;;;39.30;;
18316;SDS011;9284;52.298;21.164;2024-02-28T06:45:15;78.97;;;39.67;;
18316;SDS011;9284;52.298;21.164;2024-02-28T06:47:44;81.78;;;37.22;;
18316;SDS011;9284;52.298;21.164;2024-02-28T06:50:12;91.55;;;40.72;;
18316;SDS011;9284;52.298;21.164;2024-02-28T06:52:41;77.90;;;39.20;;
18316;SDS011;9284;52.298;21.164;2024-02-28T06:55:09;87.60;;;41.42;;
18316;SDS011;9284;52.298;21.164;2024-02-28T06:57:39;83.63;;;40.72;;
18316;SDS011;9284;52.298;21.164;2024-02-28T07:00:10;78.40;;;37.15;;
18316;SDS011;9284;52.298;21.164;2024-02-28T07:02:39;78.38;;;37.35;;
18316;SDS011;9284;52.298;21.164;2024-02-28T07:05:08;85.72;;;39.90;;
18316;SDS011;9284;52.298;21.164;2024-02-28T07:07:36;84.85;;;40.22;;
18316;SDS011;9284;52.298;21.164;2024-02-28T07:10:05;86.22;;;41.63;;
18316;SDS011;9284;52.298;21.164;2024-02-28T07:12:34;84.07;;;41.55;;
18316;SDS011;9284;52.298;21.164;2024-02-28T07:15:03;81.28;;;41.03;;
18316;SDS011;9284;52.298;21.164;2024-02-28T07:17:33;82.93;;;40.67;;
18316;SDS011;9284;52.298;21.164;2024-02-28T07:20:05;84.80;;;41.55;;
18316;SDS011;9284;52.298;21.164;2024-02-28T07:22:35;81.03;;;41.00;;
18316;SDS011;9284;52.298;21.164;2024-02-28T07:25:03;87.93;;;41.40;;
18316;SDS011;9284;52.298;21.164;2024-02-28T07:27:34;99.90;;;45.20;;
18316;SDS011;9284;52.298;21.164;2024-02-28T07:30:03;147.93;;;63.53;;
18316;SDS011;9284;52.298;21.164;2024-02-28T07:32:34;139.70;;;60.40;;
18316;SDS011;9284;52.298;21.164;2024-02-28T07:35:03;113.05;;;51.20;;
18316;SDS011;9284;52.298;21.164;2024-02-28T07:37:32;100.75;;;48.92;;
18316;SDS011;9284;52.298;21.164;2024-02-28T07:40:01;82.50;;;42.15;;
18316;SDS011;9284;52.298;21.164;2024-02-28T07:42:30;84.40;;;42.17;;
18316;SDS011;9284;52.298;21.164;2024-02-28T07:44:58;92.03;;;42.38;;
18316;SDS011;9284;52.298;21.164;2024-02-28T07:47:27;102.93;;;53.33;;
18316;SDS011;9284;52.298;21.164;2024-02-28T07:49:56;92.95;;;47.95;;
18316;SDS011;9284;52.298;21.164;2024-02-28T07:52:25;85.70;;;44.55;;
18316;SDS011;9284;52.298;21.164;2024-02-28T07:54:53;93.57;;;45.10;;
18316;SDS011;9284;52.298;21.164;2024-02-28T07:57:21;79.38;;;41.55;;
18316;SDS011;9284;52.298;21.164;2024-02-28T07:59:49;87.47;;;41.25;;
18316;SDS011;9284;52.298;21.164;2024-02-28T08:02:18;85.65;;;43.42;;
18316;SDS011;9284;52.298;21.164;2024-02-28T08:04:47;79.35;;;40.00;;
18316;SDS011;9284;52.298;21.164;2024-02-28T08:07:18;81.10;;;40.88;;
18316;SDS011;9284;52.298;21.164;2024-02-28T08:09:47;78.88;;;39.30;;
18316;SDS011;9284;52.298;21.164;2024-02-28T08:12:15;76.72;;;38.80;;
18316;SDS011;9284;52.298;21.164;2024-02-28T08:14:44;75.45;;;39.13;;
18316;SDS011;9284;52.298;21.164;2024-02-28T08:17:12;76.63;;;40.33;;
18316;SDS011;9284;52.298;21.164;2024-02-28T08:19:41;76.75;;;39.72;;
18316;SDS011;9284;52.298;21.164;2024-02-28T08:22:09;73.75;;;39.15;;
18316;SDS011;9284;52.298;21.164;2024-02-28T08:24:39;67.07;;;37.67;;
18316;SDS011;9284;52.298;21.164;2024-02-28T08:27:07;73.15;;;37.17;;
18316;SDS011;9284;52.298;21.164;2024-02-28T08:29:36;71.68;;;36.42;;
18316;SDS011;9284;52.298;21.164;2024-02-28T08:32:10;63.97;;;35.78;;
18316;SDS011;9284;52.298;21.164;2024-02-28T08:34:38;73.47;;;37.92;;
18316;SDS011;9284;52.298;21.164;2024-02-28T08:37:10;79.15;;;37.28;;
18316;SDS011;9284;52.298;21.164;2024-02-28T08:39:40;71.97;;;36.70;;
18316;SDS011;9284;52.298;21.164;2024-02-28T08:42:09;68.75;;;37.08;;
18316;SDS011;9284;52.298;21.164;2024-02-28T08:44:37;70.00;;;36.67;;
18316;SDS011;9284;52.298;21.164;2024-02-28T08:47:06;69.07;;;35.78;;
18316;SDS011;9284;52.298;21.164;2024-02-28T08:49:35;72.82;;;37.75;;
18316;SDS011;9284;52.298;21.164;2024-02-28T08:52:06;69.45;;;38.03;;
18316;SDS011;9284;52.298;21.164;2024-02-28T08:54:34;72.32;;;36.15;;
18316;SDS011;9284;52.298;21.164;2024-02-28T08:57:04;73.88;;;37.92;;
18316;SDS011;9284;52.298;21.164;2024-02-28T08:59:33;70.85;;;38.03;;
18316;SDS011;9284;52.298;21.164;2024-02-28T09:02:01;72.63;;;37.53;;
18316;SDS011;9284;52.298;21.164;2024-02-28T09:04:30;69.47;;;38.08;;
18316;SDS011;9284;52.298;21.164;2024-02-28T09:06:58;68.32;;;37.15;;
18316;SDS011;9284;52.298;21.164;2024-02-28T09:09:26;76.35;;;39.72;;
18316;SDS011;9284;52.298;21.164;2024-02-28T09:11:56;71.18;;;37.63;;
18316;SDS011;9284;52.298;21.164;2024-02-28T09:14:26;71.72;;;37.78;;
18316;SDS011;9284;52.298;21.164;2024-02-28T09:16:54;74.63;;;37.47;;
18316;SDS011;9284;52.298;21.164;2024-02-28T09:19:30;68.43;;;37.00;;
18316;SDS011;9284;52.298;21.164;2024-02-28T09:21:59;72.05;;;37.95;;
18316;SDS011;9284;52.298;21.164;2024-02-28T09:24:28;77.10;;;39.58;;
18316;SDS011;9284;52.298;21.164;2024-02-28T09:26:56;79.25;;;39.00;;
18316;SDS011;9284;52.298;21.164;2024-02-28T09:29:24;76.38;;;39.75;;
18316;SDS011;9284;52.298;21.164;2024-02-28T09:31:54;76.32;;;37.92;;
18316;SDS011;9284;52.298;21.164;2024-02-28T09:34:22;81.40;;;40.38;;
18316;SDS011;9284;52.298;21.164;2024-02-28T09:36:51;77.88;;;40.40;;
18316;SDS011;9284;52.298;21.164;2024-02-28T09:39:22;77.53;;;39.72;;
18316;SDS011;9284;52.298;21.164;2024-02-28T09:41:50;77.80;;;38.08;;
18316;SDS011;9284;52.298;21.164;2024-02-28T09:44:19;71.40;;;36.75;;
18316;SDS011;9284;52.298;21.164;2024-02-28T09:46:51;72.20;;;37.08;;
18316;SDS011;9284;52.298;21.164;2024-02-28T09:49:20;64.68;;;35.15;;
18316;SDS011;9284;52.298;21.164;2024-02-28T09:51:48;71.13;;;35.58;;
18316;SDS011;9284;52.298;21.164;2024-02-28T09:54:17;70.60;;;35.97;;
18316;SDS011;9284;52.298;21.164;2024-02-28T09:56:47;62.80;;;34.17;;
18316;SDS011;9284;52.298;21.164;2024-02-28T09:59:15;62.00;;;33.22;;
18316;SDS011;9284;52.298;21.164;2024-02-28T10:01:55;64.15;;;34.83;;
18316;SDS011;9284;52.298;21.164;2024-02-28T10:04:26;60.70;;;31.58;;
18316;SDS011;9284;52.298;21.164;2024-02-28T10:06:55;54.20;;;30.70;;
18316;SDS011;9284;52.298;21.164;2024-02-28T10:09:24;59.08;;;31.38;;
18316;SDS011;9284;52.298;21.164;2024-02-28T10:11:53;57.78;;;29.73;;
18316;SDS011;9284;52.298;21.164;2024-02-28T10:14:21;50.97;;;29.05;;
18316;SDS011;9284;52.298;21.164;2024-02-28T10:16:50;53.13;;;28.98;;
18316;SDS011;9284;52.298;21.164;2024-02-28T10:19:20;52.47;;;28.45;;
18316;SDS011;9284;52.298;21.164;2024-02-28T10:21:49;50.90;;;28.42;;
18316;SDS011;9284;52.298;21.164;2024-02-28T10:24:18;50.42;;;27.75;;
18316;SDS011;9284;52.298;21.164;2024-02-28T10:26:47;54.17;;;31.77;;
18316;SDS011;9284;52.298;21.164;2024-02-28T10:29:22;56.15;;;30.08;;
18316;SDS011;9284;52.298;21.164;2024-02-28T10:31:52;57.45;;;29.23;;
18316;SDS011;9284;52.298;21.164;2024-02-28T10:34:24;51.17;;;29.02;;
18316;SDS011;9284;52.298;21.164;2024-02-28T10:36:52;51.90;;;28.98;;
18316;SDS011;9284;52.298;21.164;2024-02-28T10:39:21;54.28;;;29.90;;
18316;SDS011;9284;52.298;21.164;2024-02-28T10:41:51;54.47;;;30.70;;
18316;SDS011;9284;52.298;21.164;2024-02-28T10:44:21;56.33;;;30.95;;
18316;SDS011;9284;52.298;21.164;2024-02-28T10:46:50;51.78;;;28.20;;
18316;SDS011;9284;52.298;21.164;2024-02-28T10:49:18;56.42;;;30.38;;
18316;SDS011;9284;52.298;21.164;2024-02-28T10:51:49;57.88;;;29.60;;
18316;SDS011;9284;52.298;21.164;2024-02-28T10:54:19;52.28;;;29.92;;
18316;SDS011;9284;52.298;21.164;2024-02-28T10:56:52;52.80;;;27.77;;
18316;SDS011;9284;52.298;21.164;2024-02-28T10:59:21;57.20;;;29.83;;
18316;SDS011;9284;52.298;21.164;2024-02-28T11:01:53;54.78;;;29.33;;
18316;SDS011;9284;52.298;21.164;2024-02-28T11:04:21;56.60;;;30.67;;
18316;SDS011;9284;52.298;21.164;2024-02-28T11:06:52;62.10;;;31.35;;
18316;SDS011;9284;52.298;21.164;2024-02-28T11:09:24;61.55;;;32.85;;
18316;SDS011;9284;52.298;21.164;2024-02-28T11:11:53;57.97;;;30.88;;
18316;SDS011;9284;52.298;21.164;2024-02-28T11:14:23;60.97;;;31.52;;
18316;SDS011;9284;52.298;21.164;2024-02-28T11:16:59;56.90;;;30.60;;
18316;SDS011;9284;52.298;21.164;2024-02-28T11:19:29;53.40;;;28.85;;
18316;SDS011;9284;52.298;21.164;2024-02-28T11:21:59;55.00;;;29.85;;
18316;SDS011;9284;52.298;21.164;2024-02-28T11:24:29;53.03;;;29.63;;
18316;SDS011;9284;52.298;21.164;2024-02-28T11:26:58;51.97;;;26.85;;
18316;SDS011;9284;52.298;21.164;2024-02-28T11:29:29;51.90;;;27.83;;
18316;SDS011;9284;52.298;21.164;2024-02-28T11:31:57;49.70;;;26.58;;
18316;SDS011;9284;52.298;21.164;2024-02-28T11:34:26;54.00;;;27.42;;
18316;SDS011;9284;52.298;21.164;2024-02-28T11:36:54;48.45;;;25.88;;
18316;SDS011;9284;52.298;21.164;2024-02-28T11:39:27;57.03;;;27.20;;
18316;SDS011;9284;52.298;21.164;2024-02-28T11:42:08;47.65;;;25.67;;
18316;SDS011;9284;52.298;21.164;2024-02-28T11:44:36;47.53;;;25.90;;
18316;SDS011;9284;52.298;21.164;2024-02-28T11:47:04;51.05;;;26.13;;
18316;SDS011;9284;52.298;21.164;2024-02-28T11:49:33;47.47;;;25.42;;
18316;SDS011;9284;52.298;21.164;2024-02-28T11:52:02;54.33;;;28.00;;
18316;SDS011;9284;52.298;21.164;2024-02-28T11:54:33;55.42;;;27.65;;
18316;SDS011;9284;52.298;21.164;2024-02-28T11:57:02;56.58;;;27.85;;
18316;SDS011;9284;52.298;21.164;2024-02-28T11:59:31;50.85;;;26.98;;
18316;SDS011;9284;52.298;21.164;2024-02-28T12:01:59;61.17;;;30.30;;
18316;SDS011;9284;52.298;21.164;2024-02-28T12:04:28;57.08;;;32.22;;
18316;SDS011;9284;52.298;21.164;2024-02-28T12:06:56;69.18;;;32.72;;
18316;SDS011;9284;52.298;21.164;2024-02-28T12:09:25;60.47;;;32.88;;
18316;SDS011;9284;52.298;21.164;2024-02-28T12:12:08;69.55;;;34.15;;
18316;SDS011;9284;52.298;21.164;2024-02-28T12:14:37;68.22;;;35.55;;
18316;SDS011;9284;52.298;21.164;2024-02-28T12:17:05;64.00;;;33.72;;
18316;SDS011;9284;52.298;21.164;2024-02-28T12:19:35;74.75;;;36.17;;
18316;SDS011;9284;52.298;21.164;2024-02-28T12:22:03;67.88;;;34.65;;
18316;SDS011;9284;52.298;21.164;2024-02-28T12:24:33;71.72;;;37.38;;
18316;SDS011;9284;52.298;21.164;2024-02-28T12:27:01;71.40;;;35.67;;
18316;SDS011;9284;52.298;21.164;2024-02-28T12:29:31;69.03;;;34.90;;
18316;SDS011;9284;52.298;21.164;2024-02-28T12:32:00;79.70;;;36.35;;
18316;SDS011;9284;52.298;21.164;2024-02-28T12:34:28;76.30;;;37.38;;
18316;SDS011;9284;52.298;21.164;2024-02-28T12:36:56;75.80;;;38.83;;
18316;SDS011;9284;52.298;21.164;2024-02-28T12:39:26;92.18;;;42.67;;
18316;SDS011;9284;52.298;21.164;2024-02-28T12:41:54;84.97;;;40.53;;
18316;SDS011;9284;52.298;21.164;2024-02-28T12:44:23;98.85;;;45.15;;
18316;SDS011;9284;52.298;21.164;2024-02-28T12:46:53;95.85;;;44.20;;
18316;SDS011;9284;52.298;21.164;2024-02-28T12:49:21;100.05;;;46.20;;
18316;SDS011;9284;52.298;21.164;2024-02-28T12:51:49;98.93;;;45.55;;
18316;SDS011;9284;52.298;21.164;2024-02-28T12:54:18;96.15;;;46.58;;
18316;SDS011;9284;52.298;21.164;2024-02-28T12:56:47;97.82;;;44.25;;
18316;SDS011;9284;52.298;21.164;2024-02-28T12:59:16;97.15;;;44.20;;
18316;SDS011;9284;52.298;21.164;2024-02-28T13:01:44;100.95;;;44.75;;
18316;SDS011;9284;52.298;21.164;2024-02-28T13:04:16;102.82;;;45.10;;
18316;SDS011;9284;52.298;21.164;2024-02-28T13:06:44;96.85;;;44.63;;
18316;SDS011;9284;52.298;21.164;2024-02-28T13:09:12;100.13;;;43.95;;
18316;SDS011;9284;52.298;21.164;2024-02-28T13:11:41;104.28;;;45.88;;
18316;SDS011;9284;52.298;21.164;2024-02-28T13:14:09;94.10;;;42.17;;
18316;SDS011;9284;52.298;21.164;2024-02-28T13:16:38;94.25;;;42.75;;
18316;SDS011;9284;52.298;21.164;2024-02-28T13:19:06;97.30;;;42.70;;
18316;SDS011;9284;52.298;21.164;2024-02-28T13:21:36;84.93;;;40.47;;
18316;SDS011;9284;52.298;21.164;2024-02-28T13:24:06;83.43;;;39.70;;
18316;SDS011;9284;52.298;21.164;2024-02-28T13:26:34;82.40;;;37.60;;
18316;SDS011;9284;52.298;21.164;2024-02-28T13:29:03;84.35;;;39.63;;
18316;SDS011;9284;52.298;21.164;2024-02-28T13:31:31;85.93;;;38.38;;
18316;SDS011;9284;52.298;21.164;2024-02-28T13:33:59;86.72;;;38.85;;
18316;SDS011;9284;52.298;21.164;2024-02-28T13:36:30;80.60;;;36.45;;
18316;SDS011;9284;52.298;21.164;2024-02-28T13:39:04;76.13;;;35.72;;
18316;SDS011;9284;52.298;21.164;2024-02-28T13:41:32;76.45;;;33.97;;
18316;SDS011;9284;52.298;21.164;2024-02-28T13:44:03;67.25;;;33.10;;
18316;SDS011;9284;52.298;21.164;2024-02-28T13:46:31;65.45;;;31.58;;
18316;SDS011;9284;52.298;21.164;2024-02-28T13:49:00;64.00;;;30.20;;
18316;SDS011;9284;52.298;21.164;2024-02-28T13:51:30;63.08;;;30.50;;
18316;SDS011;9284;52.298;21.164;2024-02-28T13:53:58;64.60;;;30.75;;
18316;SDS011;9284;52.298;21.164;2024-02-28T13:56:31;62.15;;;30.42;;
18316;SDS011;9284;52.298;21.164;2024-02-28T13:59:00;59.97;;;29.67;;
18316;SDS011;9284;52.298;21.164;2024-02-28T14:01:28;57.20;;;29.73;;
18316;SDS011;9284;52.298;21.164;2024-02-28T14:03:57;57.03;;;28.95;;
18316;SDS011;9284;52.298;21.164;2024-02-28T14:06:25;60.92;;;29.83;;
18316;SDS011;9284;52.298;21.164;2024-02-28T14:08:54;60.65;;;30.42;;
18316;SDS011;9284;52.298;21.164;2024-02-28T14:11:22;58.13;;;29.58;;
18316;SDS011;9284;52.298;21.164;2024-02-28T14:13:52;59.60;;;28.73;;
18316;SDS011;9284;52.298;21.164;2024-02-28T14:16:21;54.45;;;26.58;;
18316;SDS011;9284;52.298;21.164;2024-02-28T14:18:49;53.30;;;25.80;;
18316;SDS011;9284;52.298;21.164;2024-02-28T14:21:20;58.60;;;26.15;;
18316;SDS011;9284;52.298;21.164;2024-02-28T14:23:49;53.92;;;25.70;;
18316;SDS011;9284;52.298;21.164;2024-02-28T14:26:18;54.17;;;26.17;;
18316;SDS011;9284;52.298;21.164;2024-02-28T14:28:46;61.45;;;26.92;;
18316;SDS011;9284;52.298;21.164;2024-02-28T14:31:16;57.35;;;26.05;;